Aroma, Missouri
Current Conditions -  °F | °C
As of 3:15 PM on Friday 19 Dec 2014 (Local Time) from KHFJ Reporting Station
Haze Haze  
Wind Chill: 37°   Ceiling: 600
Heat Index: 37°   Visibility: 5mi
Dew Point: 37°   Wind: 0mph
Humidity: 100%   Direction: NA
Pressure: 30.16"   Gusts: NA
Location:  36.8998°N, 94.263°W
Report Text: KHFJ 192115Z AUTO 00000KT 5SM BR OVC006 03/03 A3016 RMK AO2
Loading
Personal Weather Stations






























Interactive Weather Map New forecast layout! Learn more

10-Day Weather Forecast

Advertisements
Track Severe Weather on mobile